Time;durP1;ratioP1;P1;durP2;ratioP2;P2;SDS_P1;SDS_P2;PMS_P1;PMS_P2;Temp;Humidity;BMP_temperature;BMP_pressure;BME280_temperature;BME280_humidity;BME280_pressure;Samples;Min_cycle;Max_cycle;Signal;HPM_P1;HPM_P2
2023/06/15 00:45:41;;;;;;;7.70;3.40;;;19.70;99.90;;;;;;5793765;23;20246;-93
2023/06/15 00:48:13;;;;;;;10.50;3.10;;;19.40;99.90;;;;;;4951780;29;20212;-93
2023/06/15 00:51:05;;;;;;;13.57;3.77;;;18.90;99.90;;;;;;4957464;28;20216;-92
2023/06/15 00:53:48;;;;;;;16.20;4.03;;;18.70;99.90;;;;;;4950790;29;20200;-92
2023/06/15 00:56:20;;;;;;;16.93;3.20;;;18.60;99.90;;;;;;4950429;29;20371;-96
2023/06/15 00:59:01;;;;;;;10.13;3.33;;;18.70;99.90;;;;;;4946514;29;20208;-93
2023/06/15 01:01:36;;;;;;;13.63;3.40;;;18.90;99.90;;;;;;4941898;29;20216;-92
2023/06/15 01:04:09;;;;;;;9.90;3.10;;;18.90;99.90;;;;;;4939555;29;20239;-93
2023/06/15 01:06:51;;;;;;;34.90;3.47;;;18.90;99.90;;;;;;4946706;28;20216;-92
2023/06/15 01:09:23;;;;;;;10.63;3.57;;;18.70;99.90;;;;;;4976566;28;20222;-93
2023/06/15 01:11:58;;;;;;;8.87;3.13;;;18.80;99.90;;;;;;4976856;28;20203;-93
2023/06/15 01:14:32;;;;;;;11.73;3.30;;;18.60;99.90;;;;;;4969241;28;20314;-92
2023/06/15 01:17:10;;;;;;;8.23;2.87;;;18.40;99.90;;;;;;4961266;28;20211;-93
2023/06/15 01:19:53;;;;;;;6.67;2.70;;;18.40;99.90;;;;;;4963798;28;20242;-92
2023/06/15 01:22:35;;;;;;;11.97;3.73;;;18.30;99.90;;;;;;4961979;29;20266;-93
2023/06/15 01:25:12;;;;;;;9.63;3.37;;;18.20;99.90;;;;;;4961285;29;20235;-92
2023/06/15 01:27:49;;;;;;;12.43;3.33;;;18.20;99.90;;;;;;4961949;29;20222;-91
2023/06/15 01:30:21;;;;;;;9.27;2.80;;;17.90;99.90;;;;;;4960872;28;20222;-93
2023/06/15 01:32:53;;;;;;;8.30;4.30;;;18.00;99.90;;;;;;4941268;29;20219;-93
2023/06/15 01:35:25;;;;;;;10.67;4.50;;;17.90;99.90;;;;;;4942572;29;20244;-92
2023/06/15 01:37:56;;;;;;;9.20;3.43;;;18.00;99.90;;;;;;4941322;29;20217;-92
2023/06/15 01:40:31;;;;;;;9.77;3.33;;;18.10;99.90;;;;;;4943542;29;20271;-95
2023/06/15 01:43:08;;;;;;;10.63;3.47;;;18.10;99.90;;;;;;4945923;29;20214;-96
2023/06/15 01:45:41;;;;;;;6.57;2.50;;;18.10;99.90;;;;;;4944939;29;20250;-95
2023/06/15 01:48:14;;;;;;;9.67;2.80;;;18.10;99.90;;;;;;4956617;29;20222;-96
2023/06/15 01:50:47;;;;;;;9.03;2.67;;;18.00;99.90;;;;;;4945810;29;20219;-96
2023/06/15 01:53:19;;;;;;;12.20;3.40;;;18.00;99.90;;;;;;4944591;29;20208;-95
2023/06/15 01:55:52;;;;;;;7.60;3.10;;;17.90;99.90;;;;;;4965729;29;20204;-96
2023/06/15 01:58:28;;;;;;;9.90;3.47;;;17.80;99.90;;;;;;4960955;29;20239;-96
2023/06/15 02:01:01;;;;;;;10.70;2.63;;;17.80;99.90;;;;;;4964898;28;20270;-96
2023/06/15 02:03:33;;;;;;;10.00;3.07;;;17.50;99.90;;;;;;4961440;29;20602;-96
2023/06/15 02:06:05;;;;;;;9.30;2.90;;;17.40;99.90;;;;;;4965753;28;20295;-96
2023/06/15 02:08:37;;;;;;;10.57;3.63;;;17.40;99.90;;;;;;4964034;28;20307;-96
2023/06/15 02:11:09;;;;;;;10.47;3.17;;;17.40;99.90;;;;;;4964048;28;20271;-93
2023/06/15 02:13:44;;;;;;;9.33;2.93;;;17.40;99.90;;;;;;4961060;28;20222;-94
2023/06/15 02:16:19;;;;;;;10.30;3.10;;;17.40;99.90;;;;;;4961101;28;20211;-95
2023/06/15 02:18:51;;;;;;;11.03;3.00;;;17.40;99.90;;;;;;4961111;28;20211;-94
2023/06/15 02:21:24;;;;;;;9.30;3.10;;;17.40;99.90;;;;;;4962388;28;20338;-96
2023/06/15 02:23:56;;;;;;;13.03;3.20;;;17.40;99.90;;;;;;4960807;28;20298;-94
2023/06/15 02:26:29;;;;;;;11.63;2.93;;;17.30;99.90;;;;;;4962830;28;20219;-95
2023/06/15 02:29:07;;;;;;;11.40;2.90;;;17.30;99.90;;;;;;4960026;28;20233;-94
2023/06/15 02:31:39;;;;;;;8.53;3.13;;;17.30;99.90;;;;;;4960820;28;20204;-96
2023/06/15 02:34:11;;;;;;;10.47;3.13;;;17.40;99.90;;;;;;4961226;28;20214;-94
2023/06/15 02:36:46;;;;;;;12.53;3.30;;;17.40;99.90;;;;;;4961142;29;20215;-94
2023/06/15 02:39:18;;;;;;;8.33;3.13;;;17.40;99.90;;;;;;4961184;28;20226;-96
2023/06/15 02:41:50;;;;;;;9.70;3.23;;;17.40;99.90;;;;;;4960856;29;20204;-95
2023/06/15 02:44:25;;;;;;;12.93;3.23;;;17.30;99.90;;;;;;4960964;28;20207;-95
2023/06/15 02:46:56;;;;;;;13.43;3.47;;;17.30;99.90;;;;;;4962628;28;20227;-95
2023/06/15 02:49:29;;;;;;;10.50;3.00;;;17.30;99.90;;;;;;4962954;28;20230;-96
2023/06/15 02:52:17;;;;;;;13.43;3.60;;;17.30;99.90;;;;;;5364000;23;20235;-96
2023/06/15 03:17:34;;;;;;;12.17;3.67;;;17.10;99.90;;;;;;5440069;23;20278;-96
2023/06/15 03:58:30;;;;;;;14.93;3.97;;;16.00;99.90;;;;;;5546381;23;20239;-96
2023/06/15 05:50:05;;;;;;;17.50;4.00;;;13.30;99.90;;;;;;4937274;29;20217;-96
2023/06/15 06:15:18;;;;;;;17.23;3.40;;;13.10;99.90;;;;;;4939229;29;20209;-96
2023/06/15 06:21:08;;;;;;;16.57;3.50;;;13.00;99.90;;;;;;4937675;29;20201;-96
2023/06/15 06:33:48;;;;;;;17.53;4.00;;;12.80;99.90;;;;;;4909999;29;20216;-96
2023/06/15 06:43:48;;;;;;;12.90;3.63;;;12.80;99.90;;;;;;4934843;29;20220;-96
2023/06/15 06:46:50;;;;;;;16.67;3.80;;;12.80;99.90;;;;;;4934337;29;20241;-96
2023/06/15 07:12:47;;;;;;;17.43;3.27;;;12.50;99.90;;;;;;4937090;29;20217;-96
2023/06/15 07:21:22;;;;;;;17.73;3.73;;;12.40;99.90;;;;;;4938979;29;20245;-96
2023/06/15 07:23:56;;;;;;;13.90;3.70;;;12.60;99.90;;;;;;4928926;29;20266;-96
2023/06/15 07:26:50;;;;;;;15.03;3.67;;;12.50;99.90;;;;;;4927131;29;20241;-96
2023/06/15 07:29:34;;;;;;;11.93;3.63;;;12.50;99.90;;;;;;4925583;29;20217;-96
2023/06/15 07:32:08;;;;;;;14.70;3.23;;;12.50;99.90;;;;;;4926037;29;20207;-96
2023/06/15 07:37:32;;;;;;;12.37;3.20;;;12.30;99.90;;;;;;4927701;29;20214;-96
2023/06/15 07:46:49;;;;;;;14.90;3.83;;;12.30;99.90;;;;;;4912661;29;20237;-96
2023/06/15 07:49:22;;;;;;;13.47;3.33;;;12.20;99.90;;;;;;4914375;29;20214;-96
2023/06/15 07:55:19;;;;;;;13.60;3.70;;;12.30;99.90;;;;;;4928298;29;20564;-95
2023/06/15 07:58:04;;;;;;;16.40;3.77;;;12.20;99.90;;;;;;4933028;29;20219;-96
2023/06/15 08:00:38;;;;;;;15.37;3.53;;;12.30;99.90;;;;;;4929475;29;20244;-96
2023/06/15 08:12:42;;;;;;;13.73;3.80;;;12.20;99.90;;;;;;4928651;29;20354;-96
2023/06/15 08:15:17;;;;;;;14.60;3.57;;;12.10;99.90;;;;;;4926926;29;20237;-96
2023/06/15 08:17:49;;;;;;;13.33;3.40;;;12.10;99.90;;;;;;4928353;29;20271;-95
2023/06/15 08:20:33;;;;;;;16.73;4.43;;;12.00;99.90;;;;;;4926263;29;20224;-96
2023/06/15 08:23:06;;;;;;;13.40;3.30;;;12.00;99.90;;;;;;4919728;29;20209;-96
2023/06/15 08:25:39;;;;;;;13.33;3.33;;;11.90;99.90;;;;;;4906205;29;20241;-96
2023/06/15 08:31:25;;;;;;;12.13;3.47;;;11.90;99.90;;;;;;4905038;29;20209;-96
2023/06/15 08:34:02;;;;;;;11.60;3.50;;;11.90;99.90;;;;;;4919558;29;20288;-96
2023/06/15 08:39:39;;;;;;;13.20;3.50;;;11.80;99.90;;;;;;4919643;29;20224;-96
2023/06/15 08:42:17;;;;;;;13.80;3.83;;;11.80;99.90;;;;;;4927696;29;20243;-96
2023/06/15 08:44:57;;;;;;;16.70;3.70;;;11.90;99.90;;;;;;4915337;29;20256;-96
2023/06/15 08:47:43;;;;;;;14.77;3.80;;;11.90;99.90;;;;;;4925749;29;20252;-96
2023/06/15 08:50:17;;;;;;;16.97;3.77;;;11.90;99.90;;;;;;4924615;29;20319;-96
2023/06/15 08:53:01;;;;;;;12.20;3.43;;;11.90;99.90;;;;;;4924739;29;20213;-95
2023/06/15 09:01:11;;;;;;;16.43;4.40;;;11.90;99.90;;;;;;4905805;29;20250;-96
2023/06/15 09:03:47;;;;;;;17.17;4.03;;;11.90;99.90;;;;;;4918756;29;20706;-96
2023/06/15 09:06:21;;;;;;;12.30;3.50;;;11.90;99.90;;;;;;4923907;29;20236;-96
2023/06/15 09:08:56;;;;;;;14.73;3.80;;;12.00;99.90;;;;;;4923605;29;20232;-96
2023/06/15 09:11:48;;;;;;;18.23;4.37;;;12.00;99.90;;;;;;4929576;29;20199;-96
2023/06/15 09:14:29;;;;;;;18.53;3.77;;;12.00;99.90;;;;;;4930157;29;20224;-96
2023/06/15 09:17:02;;;;;;;16.43;4.50;;;12.00;99.90;;;;;;4907896;29;20236;-95
2023/06/15 09:19:43;;;;;;;17.47;3.67;;;11.90;99.90;;;;;;4919953;29;20192;-95
2023/06/15 09:22:20;;;;;;;20.37;3.87;;;11.90;99.90;;;;;;4938190;29;20271;-96
2023/06/15 09:25:14;;;;;;;18.80;4.63;;;11.90;99.90;;;;;;4934203;29;20229;-96
2023/06/15 09:28:03;;;;;;;19.47;3.87;;;11.90;99.90;;;;;;4931897;29;20248;-96
2023/06/15 09:33:26;;;;;;;14.53;3.67;;;11.90;99.90;;;;;;4922565;29;20301;-96
2023/06/15 09:35:59;;;;;;;20.13;4.10;;;11.80;99.90;;;;;;4926660;29;20212;-96
2023/06/15 09:38:36;;;;;;;19.33;4.27;;;11.70;99.90;;;;;;4927144;29;20227;-95
2023/06/15 09:41:13;;;;;;;16.90;4.03;;;11.80;99.90;;;;;;4918822;29;20223;-96
2023/06/15 09:43:55;;;;;;;18.50;4.27;;;11.80;99.90;;;;;;4928337;29;20209;-96
2023/06/15 09:46:32;;;;;;;19.80;3.77;;;11.70;99.90;;;;;;4919716;29;20546;-96
2023/06/15 09:49:06;;;;;;;15.93;3.10;;;11.70;99.90;;;;;;4926714;29;20271;-96
2023/06/15 09:51:45;;;;;;;17.77;4.07;;;11.70;99.90;;;;;;4927083;29;20212;-96
2023/06/15 09:54:23;;;;;;;17.63;3.70;;;11.70;99.90;;;;;;4927496;29;20205;-96
2023/06/15 09:57:03;;;;;;;15.83;3.87;;;11.50;99.90;;;;;;4927884;29;20260;-96
2023/06/15 09:59:36;;;;;;;17.47;4.23;;;11.50;99.90;;;;;;4925793;29;20308;-96
2023/06/15 10:05:00;;;;;;;19.50;5.27;;;11.40;99.90;;;;;;4907474;29;20216;-96
2023/06/15 10:07:34;;;;;;;19.97;4.03;;;11.30;99.90;;;;;;4908462;29;20264;-96
2023/06/15 10:10:08;;;;;;;14.47;3.83;;;11.20;99.90;;;;;;4926103;29;20212;-96
2023/06/15 10:12:55;;;;;;;19.87;5.50;;;11.30;99.90;;;;;;4928312;29;20220;-96
2023/06/15 10:15:31;;;;;;;16.37;3.77;;;11.30;99.90;;;;;;4927932;29;20292;-96
2023/06/15 10:18:08;;;;;;;21.07;4.17;;;11.20;99.90;;;;;;4924588;29;20208;-96
2023/06/15 10:20:42;;;;;;;18.13;3.90;;;11.10;99.90;;;;;;4926571;29;20232;-95
2023/06/15 10:23:23;;;;;;;13.33;3.90;;;11.10;99.90;;;;;;4925310;29;20209;-96
2023/06/15 10:26:11;;;;;;;19.53;3.97;;;11.10;99.90;;;;;;4926186;29;20231;-94
2023/06/15 10:29:01;;;;;;;15.57;4.40;;;11.00;99.90;;;;;;4926115;29;20228;-96
2023/06/15 10:31:43;;;;;;;19.27;4.80;;;11.00;99.90;;;;;;4914199;29;20283;-93
2023/06/15 10:34:30;;;;;;;20.50;4.33;;;10.90;99.90;;;;;;4938744;29;20217;-96
2023/06/15 10:37:08;;;;;;;13.93;3.37;;;10.90;99.90;;;;;;4912059;29;20676;-96
2023/06/15 10:39:46;;;;;;;20.83;3.80;;;10.80;99.90;;;;;;4926814;29;20209;-96
2023/06/15 10:42:23;;;;;;;10.97;3.90;;;10.80;99.90;;;;;;4922988;29;20212;-96
2023/06/15 10:45:01;;;;;;;21.97;4.37;;;10.80;99.90;;;;;;4944094;29;20264;-96
2023/06/15 10:47:36;;;;;;;18.77;3.90;;;10.80;99.90;;;;;;4923533;29;20301;-96
2023/06/15 10:50:18;;;;;;;20.57;4.17;;;10.70;99.90;;;;;;4929081;29;20220;-95
2023/06/15 10:52:51;;;;;;;14.77;3.93;;;10.80;99.90;;;;;;4934147;29;20275;-96
2023/06/15 10:58:27;;;;;;;15.90;4.00;;;10.70;99.90;;;;;;4920081;29;20221;-96
2023/06/15 11:01:17;;;;;;;21.47;4.40;;;10.60;99.90;;;;;;4920622;29;20201;-96
2023/06/15 11:04:07;;;;;;;18.03;4.73;;;10.60;99.90;;;;;;4924833;29;20300;-96
2023/06/15 11:06:48;;;;;;;18.80;4.00;;;10.60;99.90;;;;;;4929491;29;20205;-96
2023/06/15 11:09:34;;;;;;;20.17;4.67;;;10.60;99.90;;;;;;4919882;29;20212;-96
2023/06/15 11:12:35;;;;;;;14.27;3.77;;;10.50;99.90;;;;;;4924474;29;20237;-96
2023/06/15 11:15:10;;;;;;;22.43;4.53;;;10.50;99.90;;;;;;4926793;29;20205;-95
2023/06/15 11:18:17;;;;;;;19.10;4.90;;;10.50;99.90;;;;;;4926045;29;20292;-96
2023/06/15 11:23:55;;;;;;;16.00;4.47;;;10.40;99.90;;;;;;4924756;29;20201;-95
2023/06/15 11:26:31;;;;;;;20.47;5.00;;;10.40;99.90;;;;;;4941218;29;20233;-95
2023/06/15 11:29:03;;;;;;;19.60;4.43;;;10.40;99.90;;;;;;4935674;29;20281;-95
2023/06/15 11:31:36;;;;;;;18.60;4.60;;;10.40;99.90;;;;;;4934828;29;20214;-95
2023/06/15 11:34:12;;;;;;;18.67;5.37;;;10.30;99.90;;;;;;4927244;29;20300;-96
2023/06/15 11:36:45;;;;;;;13.80;4.07;;;10.30;99.90;;;;;;4919251;29;20235;-96
2023/06/15 11:39:24;;;;;;;21.50;4.60;;;10.30;99.90;;;;;;4924494;29;20287;-94
2023/06/15 11:41:59;;;;;;;19.70;4.80;;;10.30;99.90;;;;;;4925816;29;20213;-95
2023/06/15 11:44:30;;;;;;;17.00;4.63;;;10.20;99.90;;;;;;4916898;29;20308;-95
2023/06/15 11:47:04;;;;;;;18.63;4.00;;;10.20;99.90;;;;;;4926165;29;20240;-96
2023/06/15 11:49:38;;;;;;;16.53;5.03;;;10.20;99.90;;;;;;4933077;29;20212;-96
2023/06/15 11:52:10;;;;;;;14.10;3.87;;;10.20;99.90;;;;;;4934524;29;20231;-95
2023/06/15 11:54:43;;;;;;;16.80;4.57;;;10.20;99.90;;;;;;4936546;29;20221;-94
2023/06/15 11:57:25;;;;;;;16.63;4.27;;;10.10;99.90;;;;;;4939328;29;20217;-96
2023/06/15 11:59:58;;;;;;;16.13;4.50;;;10.10;99.90;;;;;;4932079;29;20189;-96
2023/06/15 12:02:30;;;;;;;22.27;5.47;;;10.10;99.90;;;;;;4939183;29;20216;-94
2023/06/15 12:05:04;;;;;;;16.63;4.80;;;10.10;99.90;;;;;;4938374;29;20205;-96
2023/06/15 12:07:41;;;;;;;20.40;4.53;;;10.10;99.90;;;;;;4931492;29;20264;-96
2023/06/15 12:10:17;;;;;;;20.37;4.13;;;10.10;99.90;;;;;;4925985;29;20254;-96
2023/06/15 12:12:54;;;;;;;19.23;4.77;;;10.00;99.90;;;;;;4925699;29;20239;-96
2023/06/15 12:15:33;;;;;;;15.93;4.20;;;10.10;99.90;;;;;;4925152;29;20295;-95
2023/06/15 12:18:10;;;;;;;17.67;4.70;;;10.00;99.90;;;;;;4924581;29;20984;-96
2023/06/15 12:20:54;;;;;;;23.37;5.30;;;10.00;99.90;;;;;;4925811;29;20590;-95
2023/06/15 12:23:31;;;;;;;16.83;4.77;;;10.00;99.90;;;;;;4927444;29;20241;-96
2023/06/15 12:26:07;;;;;;;16.00;4.37;;;10.00;99.90;;;;;;4925779;29;20295;-96
2023/06/15 12:28:51;;;;;;;14.93;4.50;;;10.00;99.90;;;;;;4926856;29;20228;-96
2023/06/15 12:31:49;;;;;;;11.80;3.80;;;10.00;99.90;;;;;;4922550;29;20253;-94
2023/06/15 12:34:29;;;;;;;20.87;4.23;;;10.00;99.90;;;;;;4923947;29;20809;-95
2023/06/15 12:37:03;;;;;;;20.33;4.47;;;9.90;99.90;;;;;;4919629;29;20213;-95
2023/06/15 12:39:37;;;;;;;16.50;4.17;;;9.90;99.90;;;;;;4921989;29;20213;-96
2023/06/15 12:42:11;;;;;;;14.63;3.63;;;9.90;99.90;;;;;;4928923;29;20216;-96
2023/06/15 12:44:46;;;;;;;13.40;3.43;;;9.90;99.90;;;;;;4933582;29;20290;-96
2023/06/15 12:47:19;;;;;;;18.27;4.17;;;9.90;99.90;;;;;;4937269;28;20245;-96
2023/06/15 12:49:59;;;;;;;16.63;3.90;;;9.90;99.90;;;;;;4937292;29;20189;-96
2023/06/15 12:55:34;;;;;;;12.03;3.60;;;10.00;99.90;;;;;;4938336;28;20221;-96
2023/06/15 12:58:08;;;;;;;19.20;4.17;;;10.00;99.90;;;;;;4921092;29;20232;-96
2023/06/15 13:00:41;;;;;;;17.27;3.87;;;10.00;99.90;;;;;;4929066;29;20284;-96
2023/06/15 13:03:17;;;;;;;12.87;3.40;;;10.00;99.90;;;;;;4926380;29;20200;-95
2023/06/15 13:05:51;;;;;;;13.07;3.57;;;10.00;99.90;;;;;;4921387;29;20288;-95
2023/06/15 13:08:28;;;;;;;14.83;3.20;;;10.00;99.90;;;;;;4925297;29;20229;-96
2023/06/15 13:11:04;;;;;;;12.53;3.97;;;10.10;99.90;;;;;;4932562;29;20205;-95
2023/06/15 13:13:40;;;;;;;13.20;3.37;;;10.20;99.90;;;;;;4933212;29;20220;-94
2023/06/15 13:16:22;;;;;;;18.17;4.53;;;10.30;99.90;;;;;;4935792;29;20244;-95
2023/06/15 13:18:59;;;;;;;14.33;3.63;;;10.30;99.90;;;;;;4920982;29;20228;-96
2023/06/15 13:21:32;;;;;;;10.67;3.90;;;10.40;99.90;;;;;;4925589;29;20204;-96
2023/06/15 13:24:09;;;;;;;12.57;3.77;;;10.40;99.90;;;;;;4924422;29;20209;-96
2023/06/15 13:26:41;;;;;;;14.20;3.60;;;10.40;99.90;;;;;;4935795;29;20345;-96
2023/06/15 13:29:18;;;;;;;16.33;3.40;;;10.30;99.90;;;;;;4942107;29;20319;-95
2023/06/15 13:31:56;;;;;;;18.23;3.67;;;10.30;99.90;;;;;;4942262;29;20209;-96
2023/06/15 13:34:32;;;;;;;11.70;3.23;;;10.20;99.90;;;;;;4937333;29;20213;-95
2023/06/15 13:37:11;;;;;;;15.93;4.43;;;10.30;99.90;;;;;;4941332;29;20200;-95
2023/06/15 13:39:53;;;;;;;15.10;3.77;;;10.30;99.90;;;;;;4951880;29;20208;-95
2023/06/15 13:42:34;;;;;;;11.67;3.40;;;10.20;99.90;;;;;;4930060;29;20421;-94
2023/06/15 13:45:11;;;;;;;16.57;3.60;;;10.20;99.90;;;;;;4923969;29;20212;-94
2023/06/15 13:47:48;;;;;;;16.27;3.67;;;10.30;99.90;;;;;;4916705;29;20217;-96
2023/06/15 13:50:32;;;;;;;14.80;3.53;;;10.50;99.90;;;;;;4925926;29;20268;-96
2023/06/15 13:53:13;;;;;;;21.43;3.97;;;10.50;99.90;;;;;;4928401;29;20209;-95
2023/06/15 13:55:49;;;;;;;15.80;3.87;;;10.50;99.90;;;;;;4926941;29;20211;-96
2023/06/15 14:01:24;;;;;;;12.03;3.17;;;10.50;99.90;;;;;;4925931;29;20307;-95
2023/06/15 14:03:59;;;;;;;14.83;3.97;;;10.50;99.90;;;;;;4925657;29;20288;-96
2023/06/15 14:06:37;;;;;;;13.17;3.70;;;10.40;99.90;;;;;;4908401;29;20206;-95
2023/06/15 14:12:32;;;;;;;15.97;3.27;;;10.50;99.90;;;;;;4929869;29;20209;-96
2023/06/15 14:15:14;;;;;;;19.93;3.80;;;10.50;99.90;;;;;;4923107;29;20263;-96
2023/06/15 14:23:26;;;;;;;13.73;4.00;;;10.90;99.90;;;;;;4933968;29;20237;-96
2023/06/15 14:26:02;;;;;;;16.30;3.87;;;11.00;99.90;;;;;;4933885;29;20267;-96
2023/06/15 14:28:43;;;;;;;18.80;4.03;;;11.10;99.90;;;;;;4935556;29;20285;-96
2023/06/15 14:31:49;;;;;;;16.13;3.70;;;11.10;99.90;;;;;;4931969;29;20225;-96
2023/06/15 14:34:26;;;;;;;13.10;3.40;;;11.20;99.90;;;;;;4929821;29;20212;-96
2023/06/15 14:36:59;;;;;;;12.47;3.70;;;11.30;99.90;;;;;;4910392;29;20279;-96
2023/06/15 14:39:36;;;;;;;12.53;3.10;;;11.40;99.90;;;;;;4910616;29;20662;-96
2023/06/15 14:42:09;;;;;;;13.10;3.77;;;11.40;99.90;;;;;;4910225;29;20221;-95
2023/06/15 14:44:40;;;;;;;13.87;3.33;;;11.40;99.90;;;;;;4911093;29;20296;-96
2023/06/15 14:47:14;;;;;;;10.40;3.23;;;11.40;99.90;;;;;;4932428;29;20205;-95
2023/06/15 14:49:48;;;;;;;11.20;3.33;;;11.70;99.90;;;;;;4940646;28;20216;-96
2023/06/15 14:52:20;;;;;;;14.90;3.80;;;11.80;99.90;;;;;;4929512;29;20216;-96
2023/06/15 14:54:57;;;;;;;9.20;3.23;;;11.90;99.90;;;;;;4927933;29;20236;-95
2023/06/15 14:57:30;;;;;;;15.80;3.57;;;11.90;99.90;;;;;;4925497;29;20753;-96
2023/06/15 15:00:06;;;;;;;10.57;2.93;;;12.10;99.90;;;;;;4924286;29;20209;-96
2023/06/15 15:02:41;;;;;;;12.30;3.50;;;11.90;99.90;;;;;;4928047;29;20203;-94
2023/06/15 15:05:17;;;;;;;14.30;3.90;;;12.10;99.90;;;;;;4925212;29;20223;-96
2023/06/15 15:07:49;;;;;;;16.07;4.70;;;12.20;99.90;;;;;;4906578;29;20217;-96
2023/06/15 15:10:23;;;;;;;12.13;3.00;;;12.10;99.90;;;;;;4916127;29;20268;-95
2023/06/15 15:12:55;;;;;;;11.07;2.97;;;11.90;99.90;;;;;;4928383;29;20288;-96
2023/06/15 15:15:32;;;;;;;18.20;3.90;;;11.80;99.90;;;;;;4928587;29;20205;-96
2023/06/15 15:18:06;;;;;;;18.93;3.77;;;11.70;99.90;;;;;;4929150;29;20216;-95
2023/06/15 15:20:43;;;;;;;13.67;3.30;;;11.70;99.90;;;;;;4928464;29;20232;-95
2023/06/15 15:23:17;;;;;;;17.03;4.10;;;11.60;99.90;;;;;;4928710;29;20219;-96
2023/06/15 15:25:50;;;;;;;15.20;3.40;;;11.60;99.90;;;;;;4929837;29;20208;-96
2023/06/15 15:28:22;;;;;;;14.13;3.57;;;11.90;99.90;;;;;;4932196;29;20213;-96
2023/06/15 15:30:55;;;;;;;14.03;3.57;;;12.20;99.90;;;;;;4933536;29;20248;-96
2023/06/15 15:33:32;;;;;;;13.13;3.43;;;12.50;99.90;;;;;;4913721;29;20213;-96
2023/06/15 15:36:07;;;;;;;18.63;3.80;;;12.60;99.90;;;;;;4938214;29;20323;-95
2023/06/15 15:38:52;;;;;;;14.63;3.43;;;12.60;99.90;;;;;;4935453;28;20197;-95
2023/06/15 15:41:24;;;;;;;17.00;4.17;;;12.60;99.90;;;;;;4940510;29;20209;-96
2023/06/15 15:43:58;;;;;;;18.47;3.97;;;12.80;99.90;;;;;;4937489;28;20196;-96
2023/06/15 15:46:30;;;;;;;17.13;3.40;;;13.10;99.90;;;;;;4935055;29;20200;-95
2023/06/15 15:49:02;;;;;;;16.43;3.53;;;13.10;99.90;;;;;;4932207;29;20217;-95
2023/06/15 15:51:51;;;;;;;13.37;3.50;;;13.20;99.90;;;;;;4928403;29;20205;-96
2023/06/15 15:54:23;;;;;;;13.57;3.20;;;13.40;99.90;;;;;;4928455;29;20209;-96
2023/06/15 15:56:56;;;;;;;12.37;3.13;;;13.60;99.90;;;;;;4930994;29;20231;-94
2023/06/15 15:59:29;;;;;;;13.90;3.93;;;13.50;99.90;;;;;;4934415;29;20228;-96
2023/06/15 16:02:04;;;;;;;13.40;3.60;;;13.50;99.90;;;;;;4932915;29;20260;-94
2023/06/15 16:04:38;;;;;;;15.43;4.43;;;13.40;99.90;;;;;;4936958;29;20201;-96
2023/06/15 16:07:12;;;;;;;14.23;3.50;;;13.30;99.90;;;;;;4950062;29;20445;-95
2023/06/15 16:09:49;;;;;;;19.87;3.90;;;13.40;99.90;;;;;;4932689;29;20252;-96
2023/06/15 16:12:29;;;;;;;10.33;3.33;;;13.50;99.90;;;;;;4932452;29;20212;-96
2023/06/15 16:15:01;;;;;;;16.70;3.77;;;13.50;99.90;;;;;;4930326;29;20243;-95
2023/06/15 16:17:33;;;;;;;17.00;4.30;;;13.70;99.90;;;;;;4930499;29;20220;-96
2023/06/15 16:20:08;;;;;;;12.20;4.23;;;13.80;99.90;;;;;;4933211;29;20209;-96
2023/06/15 16:22:43;;;;;;;12.97;3.53;;;13.80;99.90;;;;;;4931928;29;20242;-96
2023/06/15 16:25:27;;;;;;;13.20;4.27;;;13.70;99.90;;;;;;4936213;29;20198;-96
2023/06/15 16:28:09;;;;;;;18.63;4.40;;;13.70;99.90;;;;;;4933039;29;20193;-95
2023/06/15 16:33:33;;;;;;;16.33;4.27;;;13.50;99.90;;;;;;4935548;29;20236;-96
2023/06/15 17:14:13;;;;;;;13.90;4.33;;;14.20;99.90;;;;;;5341154;23;20227;-94
2023/06/15 17:19:43;;;;;;;16.47;3.90;;;14.50;99.90;;;;;;4931033;29;20239;-96
2023/06/15 17:22:15;;;;;;;15.20;4.60;;;14.60;99.90;;;;;;4937972;29;20231;-94
2023/06/15 17:24:51;;;;;;;16.37;4.57;;;14.60;99.90;;;;;;4936847;29;20212;-95
2023/06/15 17:27:25;;;;;;;15.33;4.17;;;14.60;99.90;;;;;;5415684;23;20297;-95
2023/06/15 17:30:01;;;;;;;13.70;4.30;;;14.50;99.90;;;;;;5048463;23;20316;-93
2023/06/15 17:32:33;;;;;;;17.80;4.33;;;14.40;99.90;;;;;;4940085;29;20227;-94
2023/06/15 17:35:05;;;;;;;13.00;4.07;;;14.60;99.90;;;;;;4940921;29;20201;-93
2023/06/15 17:37:37;;;;;;;14.23;4.50;;;14.90;99.90;;;;;;4946796;29;20215;-94
2023/06/15 17:40:10;;;;;;;15.67;4.30;;;14.90;99.90;;;;;;4951125;29;20213;-93
2023/06/15 17:42:42;;;;;;;16.57;4.70;;;15.10;99.90;;;;;;4945937;29;20259;-92
2023/06/15 17:45:16;;;;;;;14.73;4.53;;;15.20;99.90;;;;;;4938968;29;20209;-94
2023/06/15 17:47:48;;;;;;;22.00;4.47;;;15.30;99.90;;;;;;4939537;28;20214;-91
2023/06/15 17:50:20;;;;;;;15.17;4.07;;;15.50;99.90;;;;;;4936820;29;20232;-90
2023/06/15 17:52:51;;;;;;;13.63;4.17;;;15.50;99.90;;;;;;4928211;29;20633;-91
2023/06/15 17:55:23;;;;;;;19.97;4.80;;;15.60;99.90;;;;;;4941656;29;20584;-94
2023/06/15 17:57:55;;;;;;;15.50;4.10;;;15.60;99.90;;;;;;4266675;29;10000477;-93
2023/06/15 18:00:30;;;;;;;17.17;4.63;;;15.70;99.90;;;;;;4950262;29;20612;-90
2023/06/15 18:03:02;;;;;;;13.73;3.83;;;15.80;99.90;;;;;;4938616;28;20208;-90
2023/06/15 18:05:34;;;;;;;20.40;4.50;;;15.60;99.90;;;;;;4947528;29;20196;-92
2023/06/15 18:08:06;;;;;;;14.63;4.47;;;15.60;99.90;;;;;;4949091;29;20280;-93
2023/06/15 18:10:40;;;;;;;14.00;4.07;;;15.50;99.90;;;;;;4954827;29;20343;-95
2023/06/15 18:13:11;;;;;;;11.63;4.40;;;15.50;99.90;;;;;;4952895;29;20235;-96
2023/06/15 18:18:35;;;;;;;10.90;4.07;;;15.70;99.90;;;;;;4926891;29;20724;-96
2023/06/15 18:21:10;;;;;;;13.37;4.27;;;15.80;99.90;;;;;;4939943;29;20668;-94
2023/06/15 18:23:46;;;;;;;14.20;3.80;;;15.80;99.90;;;;;;4930476;29;20212;-96
2023/06/15 18:26:24;;;;;;;10.93;4.13;;;15.80;99.90;;;;;;4941787;29;20208;-96
2023/06/15 18:28:57;;;;;;;11.97;3.90;;;15.80;99.90;;;;;;4924078;29;20233;-95
2023/06/15 18:31:32;;;;;;;12.03;3.60;;;16.00;99.90;;;;;;4918655;29;20313;-95
2023/06/15 18:36:56;;;;;;;14.20;3.73;;;16.20;99.90;;;;;;4930219;29;20610;-93
2023/06/15 18:42:19;;;;;;;13.90;4.47;;;16.30;99.90;;;;;;4914428;29;20281;-96
2023/06/15 18:48:00;;;;;;;14.63;4.43;;;16.60;99.90;;;;;;4993336;23;20236;-93
2023/06/15 18:50:32;;;;;;;12.50;3.97;;;16.60;99.90;;;;;;4944300;29;20240;-96
2023/06/15 18:53:08;;;;;;;14.83;4.00;;;16.70;99.90;;;;;;4945911;29;20264;-96
2023/06/15 18:55:42;;;;;;;17.33;4.17;;;16.70;99.90;;;;;;4946666;29;20263;-95
2023/06/15 18:58:13;;;;;;;11.87;3.57;;;16.90;99.90;;;;;;4934819;29;20304;-94
2023/06/15 19:00:46;;;;;;;7.80;2.93;;;16.80;99.90;;;;;;4941546;29;20295;-94
2023/06/15 19:03:19;;;;;;;14.03;4.27;;;16.80;99.90;;;;;;4941285;29;20228;-93
2023/06/15 19:05:51;;;;;;;9.73;3.50;;;16.80;99.90;;;;;;4934553;29;20213;-93
2023/06/15 19:08:23;;;;;;;14.53;3.90;;;16.90;99.90;;;;;;4930635;29;20213;-95
2023/06/15 19:10:56;;;;;;;13.03;3.93;;;17.00;99.90;;;;;;4946740;29;20232;-94
2023/06/15 19:13:30;;;;;;;14.93;3.50;;;17.10;99.90;;;;;;4938953;29;20220;-94
2023/06/15 19:16:01;;;;;;;33.57;4.90;;;17.30;99.90;;;;;;4939740;29;20216;-95
2023/06/15 19:18:35;;;;;;;14.93;4.23;;;17.30;99.90;;;;;;4929402;29;20279;-94
2023/06/15 19:21:07;;;;;;;15.93;3.97;;;16.90;99.90;;;;;;4936141;29;20238;-93
2023/06/15 19:23:41;;;;;;;13.77;3.90;;;17.10;99.90;;;;;;4930219;29;20209;-95
2023/06/15 19:26:15;;;;;;;13.70;4.00;;;17.30;99.90;;;;;;4936532;29;20287;-94
2023/06/15 19:28:47;;;;;;;17.37;4.00;;;17.60;99.90;;;;;;4936516;29;20206;-93
2023/06/15 19:31:20;;;;;;;16.37;4.50;;;17.80;99.90;;;;;;4933633;29;20236;-93
2023/06/15 19:33:53;;;;;;;12.10;4.00;;;17.80;99.90;;;;;;4937806;29;20204;-93
2023/06/15 19:36:25;;;;;;;13.23;3.87;;;17.90;99.90;;;;;;4934736;29;20204;-92
2023/06/15 19:38:57;;;;;;;18.83;4.20;;;17.90;99.90;;;;;;4929338;29;20294;-93
2023/06/15 19:41:32;;;;;;;16.03;4.70;;;17.90;99.90;;;;;;4939916;29;20212;-93
2023/06/15 19:44:05;;;;;;;12.13;3.73;;;17.70;99.90;;;;;;4931406;29;20209;-94
2023/06/15 19:46:38;;;;;;;13.13;3.83;;;17.90;99.90;;;;;;4926086;29;20260;-94
2023/06/15 19:49:12;;;;;;;15.60;4.20;;;18.10;99.90;;;;;;4934530;29;20204;-94
2023/06/15 19:51:44;;;;;;;11.00;3.63;;;18.30;99.90;;;;;;4935835;29;20323;-93
2023/06/15 19:54:16;;;;;;;16.37;3.90;;;18.00;99.90;;;;;;4939081;29;20224;-93
2023/06/15 19:56:49;;;;;;;12.10;3.70;;;18.10;99.90;;;;;;4940687;29;20250;-93
2023/06/15 19:59:20;;;;;;;13.23;3.80;;;18.30;99.90;;;;;;4939560;29;20205;-93
2023/06/15 20:01:52;;;;;;;11.73;3.80;;;18.30;99.90;;;;;;4948043;29;20255;-93
2023/06/15 20:04:26;;;;;;;13.70;3.70;;;18.50;99.90;;;;;;4950974;28;20192;-92
2023/06/15 20:07:01;;;;;;;12.50;4.00;;;18.60;99.90;;;;;;5044903;23;20252;-94